Time;durP1;ratioP1;P1;durP2;ratioP2;P2;SDS_P1;SDS_P2;PMS_P1;PMS_P2;Temp;Humidity;BMP_temperature;BMP_pressure;BME280_temperature;BME280_humidity;BME280_pressure;Samples;Min_cycle;Max_cycle;Signal;HPM_P1;HPM_P2
2022/11/04 00:04:23;;;;;;;;;;;11.20;99.90;;;;;;12521135;28;19932;-38
2022/11/04 00:12:23;;;;;;;;;;;11.20;99.90;;;;;;12526759;28;19928;-38
2022/11/04 00:29:41;;;;;;;;;;;11.30;99.90;;;;;;12525146;28;19974;-38
2022/11/04 00:35:49;;;;;;;;;;;11.30;99.90;;;;;;12522582;28;19936;-38
2022/11/04 00:41:51;;;;;;;;;;;11.40;99.90;;;;;;12525162;28;20291;-37
2022/11/04 00:47:53;;;;;;;;;;;11.50;99.90;;;;;;12524178;28;19925;-38
2022/11/04 00:53:56;;;;;;;;;;;11.50;99.90;;;;;;12525464;28;20487;-37
2022/11/04 00:59:58;;;;;;;;;;;11.40;99.90;;;;;;12516468;28;19948;-38
2022/11/04 01:06:00;;;;;;;;;;;11.50;99.90;;;;;;12521713;28;20510;-38
2022/11/04 01:12:02;;;;;;;;;;;11.50;99.90;;;;;;12516278;28;20283;-37
2022/11/04 01:18:04;;;;;;;;;;;11.50;99.90;;;;;;12518132;28;20023;-38
2022/11/04 01:24:07;;;;;;;;;;;11.50;99.90;;;;;;12535643;28;19929;-38
2022/11/04 01:30:09;;;;;;;;;;;11.50;99.90;;;;;;12537377;28;19948;-38
2022/11/04 01:36:11;;;;;;;;;;;11.50;99.90;;;;;;12524709;28;19936;-38
2022/11/04 01:42:13;;;;;;;;;;;11.50;99.90;;;;;;12536121;28;20016;-38
2022/11/04 01:48:21;;;;;;;;;;;11.50;99.90;;;;;;12530570;28;19976;-38
2022/11/04 01:54:22;;;;;;;;;;;11.50;99.90;;;;;;12542579;28;20315;-38
2022/11/04 02:00:24;;;;;;;;;;;11.50;99.90;;;;;;12529303;28;20207;-38
2022/11/04 02:06:26;;;;;;;;;;;11.30;99.90;;;;;;12523401;28;20304;-38
2022/11/04 02:18:48;;;;;;;;;;;11.30;99.90;;;;;;12525560;28;19925;-38
2022/11/04 02:24:50;;;;;;;;;;;11.20;99.90;;;;;;12547587;28;19974;-38
2022/11/04 02:30:56;;;;;;;;;;;11.10;99.90;;;;;;12522634;28;19924;-38
2022/11/04 02:37:07;;;;;;;;;;;10.90;99.90;;;;;;12522285;28;19967;-39
2022/11/04 02:43:09;;;;;;;;;;;10.80;99.90;;;;;;12535662;28;19986;-38
2022/11/04 02:49:13;;;;;;;;;;;10.80;99.90;;;;;;12520916;28;19924;-38
2022/11/04 02:55:18;;;;;;;;;;;10.80;99.90;;;;;;12531953;28;19932;-37
2022/11/04 03:01:21;;;;;;;;;;;10.70;99.90;;;;;;12527958;28;19929;-38
2022/11/04 03:07:26;;;;;;;;;;;10.50;99.90;;;;;;12513301;28;20019;-37
2022/11/04 03:13:31;;;;;;;;;;;10.50;99.90;;;;;;12534619;28;20328;-38
2022/11/04 03:19:55;;;;;;;;;;;10.40;99.90;;;;;;12526732;28;19940;-37
2022/11/04 03:26:05;;;;;;;;;;;10.40;99.90;;;;;;12524252;28;19925;-38
2022/11/04 03:32:12;;;;;;;;;;;10.40;99.90;;;;;;12525507;28;19932;-37
2022/11/04 03:38:14;;;;;;;;;;;10.50;99.90;;;;;;12517674;28;19925;-38
2022/11/04 03:44:16;;;;;;;;;;;10.40;99.90;;;;;;12528187;28;19936;-38
2022/11/04 03:50:28;;;;;;;;;;;10.30;99.90;;;;;;12530751;28;19924;-38
2022/11/04 03:56:39;;;;;;;;;;;10.30;99.90;;;;;;12524600;28;19932;-38
2022/11/04 04:03:00;;;;;;;;;;;10.20;99.90;;;;;;12515385;28;19929;-38
2022/11/04 04:09:07;;;;;;;;;;;10.20;99.90;;;;;;12522138;28;20319;-38
2022/11/04 04:15:16;;;;;;;;;;;10.20;99.90;;;;;;12529804;28;19974;-38
2022/11/04 04:21:20;;;;;;;;;;;10.20;99.90;;;;;;12522269;28;19925;-38
2022/11/04 04:27:31;;;;;;;;;;;10.20;99.90;;;;;;12520830;28;20386;-38
2022/11/04 04:33:33;;;;;;;;;;;10.20;99.90;;;;;;12522268;28;19936;-38
2022/11/04 04:46:01;;;;;;;;;;;10.30;99.90;;;;;;12528060;28;20308;-38
2022/11/04 04:52:03;;;;;;;;;;;10.30;99.90;;;;;;12533586;28;19931;-38
2022/11/04 04:58:05;;;;;;;;;;;10.20;99.90;;;;;;12533685;28;19940;-38
2022/11/04 05:04:07;;;;;;;;;;;10.20;99.90;;;;;;12533604;28;19925;-38
2022/11/04 05:10:11;;;;;;;;;;;10.20;99.90;;;;;;12529807;28;19936;-38
2022/11/04 05:16:12;;;;;;;;;;;10.30;99.90;;;;;;12532815;28;19925;-38
2022/11/04 05:22:14;;;;;;;;;;;10.20;99.90;;;;;;12529854;28;19925;-38
2022/11/04 05:28:16;;;;;;;;;;;10.20;99.90;;;;;;12538683;28;20532;-38
2022/11/04 05:34:17;;;;;;;;;;;10.10;99.90;;;;;;12530997;28;19925;-38
2022/11/04 05:40:19;;;;;;;;;;;10.10;99.90;;;;;;12534233;28;19959;-38
2022/11/04 05:46:21;;;;;;;;;;;10.10;99.90;;;;;;12552132;28;19929;-38
2022/11/04 05:52:23;;;;;;;;;;;10.10;99.90;;;;;;12539532;28;20281;-38
2022/11/04 05:58:25;;;;;;;;;;;10.10;99.90;;;;;;12532359;28;19932;-38
2022/11/04 06:04:27;;;;;;;;;;;10.10;99.90;;;;;;12534499;28;19929;-37
2022/11/04 06:10:29;;;;;;;;;;;10.00;99.90;;;;;;12524979;28;19924;-38
2022/11/04 06:16:31;;;;;;;;;;;10.00;99.90;;;;;;12527995;28;19929;-38
2022/11/04 06:22:32;;;;;;;;;;;10.20;99.90;;;;;;12540715;28;20340;-38
2022/11/04 06:28:34;;;;;;;;;;;10.10;99.90;;;;;;12532731;28;20280;-38
2022/11/04 06:34:36;;;;;;;;;;;10.10;99.90;;;;;;12536243;28;20392;-38
2022/11/04 06:40:38;;;;;;;;;;;10.00;99.90;;;;;;12533270;28;19986;-38
2022/11/04 06:46:41;;;;;;;;;;;9.90;99.90;;;;;;12526202;28;19933;-38
2022/11/04 06:52:42;;;;;;;;;;;9.80;99.90;;;;;;12534149;28;19958;-37
2022/11/04 06:58:48;;;;;;;;;;;9.80;99.90;;;;;;12528653;28;19924;-38
2022/11/04 07:04:50;;;;;;;;;;;9.70;99.90;;;;;;12530373;28;20376;-38
2022/11/04 07:10:53;;;;;;;;;;;9.80;99.90;;;;;;12525819;28;19968;-38
2022/11/04 07:16:55;;;;;;;;;;;9.80;99.90;;;;;;12522794;28;19981;-38
2022/11/04 07:22:57;;;;;;;;;;;9.90;99.90;;;;;;12526289;28;19928;-38
2022/11/04 07:28:59;;;;;;;;;;;9.90;99.90;;;;;;12531994;28;19929;-38
2022/11/04 07:35:01;;;;;;;;;;;9.90;99.90;;;;;;12529454;28;19978;-38
2022/11/04 07:41:04;;;;;;;;;;;9.90;99.90;;;;;;12521355;28;19929;-39
2022/11/04 07:47:05;;;;;;;;;;;9.90;99.90;;;;;;12534007;28;20058;-39
2022/11/04 07:53:07;;;;;;;;;;;9.90;99.90;;;;;;12531107;28;19929;-38
2022/11/04 07:59:10;;;;;;;;;;;9.90;99.90;;;;;;12524816;28;19925;-38
2022/11/04 08:05:12;;;;;;;;;;;9.90;99.90;;;;;;12526057;28;20030;-38
2022/11/04 08:11:16;;;;;;;;;;;9.80;99.90;;;;;;12520194;28;19925;-37
2022/11/04 08:17:19;;;;;;;;;;;9.90;99.90;;;;;;12528502;28;19935;-38
2022/11/04 08:23:20;;;;;;;;;;;9.90;99.90;;;;;;12525375;28;19932;-38
2022/11/04 08:29:22;;;;;;;;;;;10.00;99.90;;;;;;12524354;28;20393;-38
2022/11/04 08:35:24;;;;;;;;;;;10.10;99.90;;;;;;12519904;28;19936;-38
2022/11/04 08:41:28;;;;;;;;;;;10.20;99.90;;;;;;12528975;28;19928;-38
2022/11/04 08:47:29;;;;;;;;;;;10.20;99.90;;;;;;12524746;28;19940;-38
2022/11/04 08:53:31;;;;;;;;;;;10.30;99.90;;;;;;12523113;28;19925;-38
2022/11/04 08:59:33;;;;;;;;;;;10.40;99.90;;;;;;12530558;28;20013;-38
2022/11/04 09:05:47;;;;;;;;;;;10.40;99.90;;;;;;12516793;28;19925;-38
2022/11/04 09:11:49;;;;;;;;;;;10.50;99.90;;;;;;12523842;28;20304;-38
2022/11/04 09:17:51;;;;;;;;;;;10.40;99.90;;;;;;12518908;28;19933;-38
2022/11/04 09:23:53;;;;;;;;;;;10.30;99.90;;;;;;12529007;28;19931;-38
2022/11/04 09:29:54;;;;;;;;;;;10.50;99.90;;;;;;12521665;28;20729;-38
2022/11/04 09:35:56;;;;;;;;;;;10.40;99.90;;;;;;12527488;28;19924;-38
2022/11/04 09:42:10;;;;;;;;;;;10.60;99.90;;;;;;12529565;28;19925;-38
2022/11/04 09:48:15;;;;;;;;;;;11.00;99.90;;;;;;12530285;28;20365;-38
2022/11/04 09:54:25;;;;;;;;;;;10.80;99.90;;;;;;12539970;28;20285;-38
2022/11/04 10:00:29;;;;;;;;;;;10.70;99.90;;;;;;12527884;28;20392;-38
2022/11/04 10:06:49;;;;;;;;;;;10.50;99.90;;;;;;12524694;28;19925;-38
2022/11/04 10:12:55;;;;;;;;;;;10.60;99.90;;;;;;12522138;28;19939;-38
2022/11/04 10:18:57;;;;;;;;;;;10.90;99.90;;;;;;12533535;28;19929;-38
2022/11/04 10:25:07;;;;;;;;;;;11.10;99.90;;;;;;12532517;28;19973;-38
2022/11/04 10:31:13;;;;;;;;;;;11.10;99.90;;;;;;12524627;28;19929;-38
2022/11/04 10:37:14;;;;;;;;;;;11.60;99.90;;;;;;12521450;28;19931;-38
2022/11/04 10:43:36;;;;;;;;;;;11.40;99.90;;;;;;12524278;28;19925;-38
2022/11/04 10:50:07;;;;;;;;;;;11.80;99.90;;;;;;12533004;28;20299;-38
2022/11/04 10:56:29;;;;;;;;;;;12.50;99.90;;;;;;12511228;28;19925;-38
2022/11/04 11:02:40;;;;;;;;;;;12.60;99.90;;;;;;12528931;28;19925;-38
2022/11/04 11:08:42;;;;;;;;;;;12.60;99.90;;;;;;12520673;28;19925;-38
2022/11/04 11:14:46;;;;;;;;;;;12.70;99.90;;;;;;12524533;28;19935;-38
2022/11/04 11:21:03;;;;;;;;;;;13.00;99.90;;;;;;12528576;28;20323;-38
2022/11/04 11:27:10;;;;;;;;;;;12.50;99.90;;;;;;12526265;28;19929;-38
2022/11/04 11:33:32;;;;;;;;;;;12.50;99.90;;;;;;12509950;28;19925;-38
2022/11/04 11:39:34;;;;;;;;;;;12.90;99.90;;;;;;12531645;28;19928;-38
2022/11/04 11:45:36;;;;;;;;;;;13.00;99.90;;;;;;12523015;28;19936;-38
2022/11/04 11:51:38;;;;;;;;;;;13.30;99.90;;;;;;12533545;28;19929;-39
2022/11/04 11:57:52;;;;;;;;;;;13.20;99.90;;;;;;12528532;28;19928;-38
2022/11/04 12:04:15;;;;;;;;;;;13.60;99.90;;;;;;12518206;28;19929;-38
2022/11/04 12:10:36;;;;;;;;;;;13.80;99.90;;;;;;12528303;28;19992;-38
2022/11/04 12:17:01;;;;;;;;;;;14.00;99.90;;;;;;12512866;28;20217;-38
2022/11/04 12:23:09;;;;;;;;;;;13.70;99.90;;;;;;12526857;28;19929;-38
2022/11/04 12:29:26;;;;;;;;;;;13.80;99.90;;;;;;12522832;28;19932;-38
2022/11/04 12:35:28;;;;;;;;;;;13.70;99.90;;;;;;12518182;28;19969;-38
2022/11/04 12:41:39;;;;;;;;;;;13.30;99.90;;;;;;12523045;28;20285;-37
2022/11/04 12:48:06;;;;;;;;;;;13.20;99.90;;;;;;12531821;28;20012;-38
2022/11/04 12:54:18;;;;;;;;;;;13.00;99.90;;;;;;12519574;28;19929;-37
2022/11/04 13:00:23;;;;;;;;;;;12.90;99.90;;;;;;12512010;28;19936;-38
2022/11/04 13:06:28;;;;;;;;;;;12.70;99.90;;;;;;12515757;28;19929;-38
2022/11/04 13:12:42;;;;;;;;;;;12.40;99.90;;;;;;12531693;28;19936;-38
2022/11/04 13:18:46;;;;;;;;;;;12.40;99.90;;;;;;12529409;28;19935;-38
2022/11/04 13:25:09;;;;;;;;;;;12.40;99.90;;;;;;12534668;28;19940;-38
2022/11/04 13:31:31;;;;;;;;;;;12.30;99.90;;;;;;12523281;28;20384;-35
2022/11/04 13:37:35;;;;;;;;;;;12.30;99.90;;;;;;12516093;28;19925;-38
2022/11/04 13:43:40;;;;;;;;;;;12.30;99.90;;;;;;12528143;28;19929;-38
2022/11/04 13:49:47;;;;;;;;;;;12.10;99.90;;;;;;12528968;28;20318;-37
2022/11/04 13:55:49;;;;;;;;;;;12.20;99.90;;;;;;12529871;28;19945;-38
2022/11/04 14:02:09;;;;;;;;;;;12.40;99.90;;;;;;12524651;28;19959;-38
2022/11/04 14:08:13;;;;;;;;;;;12.50;99.90;;;;;;12522912;28;20335;-37
2022/11/04 14:14:18;;;;;;;;;;;12.70;99.90;;;;;;12523656;28;19925;-37
2022/11/04 14:20:25;;;;;;;;;;;12.80;99.90;;;;;;12528863;28;19931;-38
2022/11/04 14:26:46;;;;;;;;;;;12.60;99.90;;;;;;12516909;28;20645;-38
2022/11/04 14:32:47;;;;;;;;;;;12.40;99.90;;;;;;12518070;28;19925;-38
2022/11/04 14:38:52;;;;;;;;;;;12.30;99.90;;;;;;12520691;28;19925;-38
2022/11/04 14:44:53;;;;;;;;;;;12.20;99.90;;;;;;12527383;28;19929;-37
2022/11/04 14:50:55;;;;;;;;;;;12.10;99.90;;;;;;12529980;28;19944;-38
2022/11/04 14:57:32;;;;;;;;;;;12.00;99.90;;;;;;12535156;28;19924;-38
2022/11/04 15:03:35;;;;;;;;;;;12.00;99.90;;;;;;12453163;28;19932;-38
2022/11/04 15:09:57;;;;;;;;;;;11.90;99.90;;;;;;12523623;28;19925;-37
2022/11/04 15:16:03;;;;;;;;;;;11.80;99.90;;;;;;12521383;28;19925;-37
2022/11/04 15:22:05;;;;;;;;;;;11.70;99.90;;;;;;12530153;28;20019;-37
2022/11/04 15:28:15;;;;;;;;;;;11.60;99.90;;;;;;12520752;28;19925;-38
2022/11/04 15:34:17;;;;;;;;;;;11.60;99.90;;;;;;12518349;28;20369;-37
2022/11/04 15:40:19;;;;;;;;;;;11.50;99.90;;;;;;12522218;28;19928;-37
2022/11/04 15:46:22;;;;;;;;;;;11.30;99.90;;;;;;12531154;28;20395;-38
2022/11/04 15:52:25;;;;;;;;;;;11.10;99.90;;;;;;12527419;28;19924;-37
2022/11/04 15:58:27;;;;;;;;;;;10.90;99.90;;;;;;12522579;28;19925;-39
2022/11/04 16:04:29;;;;;;;;;;;10.90;99.90;;;;;;12513486;28;19928;-37
2022/11/04 16:10:31;;;;;;;;;;;10.80;99.90;;;;;;12543670;28;19925;-37
2022/11/04 16:16:32;;;;;;;;;;;10.70;99.90;;;;;;12518028;28;19929;-37
2022/11/04 16:22:37;;;;;;;;;;;10.50;99.90;;;;;;12520499;28;20499;-38
2022/11/04 16:28:39;;;;;;;;;;;10.30;99.90;;;;;;12519338;28;20381;-38
2022/11/04 16:34:41;;;;;;;;;;;10.20;99.90;;;;;;12518014;28;19933;-37
2022/11/04 16:40:44;;;;;;;;;;;10.10;99.90;;;;;;12521775;28;19925;-38
2022/11/04 16:46:46;;;;;;;;;;;10.10;99.90;;;;;;12527795;28;20294;-37
2022/11/04 16:52:50;;;;;;;;;;;10.00;99.90;;;;;;12519623;28;19928;-38
2022/11/04 16:58:51;;;;;;;;;;;9.90;99.90;;;;;;12520887;28;20288;-37
2022/11/04 17:04:53;;;;;;;;;;;9.90;99.90;;;;;;12518237;28;20380;-37
2022/11/04 17:10:55;;;;;;;;;;;9.80;99.90;;;;;;12518671;28;19935;-37
2022/11/04 17:16:56;;;;;;;;;;;9.70;99.90;;;;;;12515157;28;19925;-38
2022/11/04 17:23:01;;;;;;;;;;;9.60;99.90;;;;;;12518419;28;20335;-38
2022/11/04 17:29:02;;;;;;;;;;;9.60;99.90;;;;;;12522327;28;19929;-38
2022/11/04 17:35:04;;;;;;;;;;;9.40;99.90;;;;;;12513313;28;19932;-38
2022/11/04 17:47:26;;;;;;;;;;;9.40;99.90;;;;;;12525704;28;19925;-37
2022/11/04 17:59:33;;;;;;;;;;;9.20;99.90;;;;;;12575752;28;20292;-83
2022/11/04 18:05:37;;;;;;;;;;;9.10;99.90;;;;;;12584437;28;19978;-83
2022/11/04 18:18:00;;;;;;;;;;;9.10;99.90;;;;;;12571270;28;19931;-83
2022/11/04 18:24:03;;;;;;;;;;;9.10;99.90;;;;;;12587398;28;19925;-83
2022/11/04 18:30:05;;;;;;;;;;;9.00;99.90;;;;;;12584705;28;20019;-83
2022/11/04 18:36:07;;;;;;;;;;;8.90;99.90;;;;;;12578993;28;19931;-83
2022/11/04 18:42:08;;;;;;;;;;;8.90;99.90;;;;;;12581229;28;20498;-82
2022/11/04 18:48:10;;;;;;;;;;;9.00;99.90;;;;;;12582776;28;20307;-83
2022/11/04 18:54:13;;;;;;;;;;;9.00;99.90;;;;;;12575275;28;19928;-83
2022/11/04 19:00:15;;;;;;;;;;;8.90;99.90;;;;;;12574521;28;19929;-83
2022/11/04 19:06:19;;;;;;;;;;;8.90;99.90;;;;;;12569516;28;19928;-83
2022/11/04 19:18:41;;;;;;;;;;;9.00;99.90;;;;;;12577151;28;20379;-83
2022/11/04 19:24:43;;;;;;;;;;;9.10;99.90;;;;;;12580400;28;19925;-83
2022/11/04 19:30:44;;;;;;;;;;;9.20;99.90;;;;;;12565410;28;20023;-83
2022/11/04 19:36:46;;;;;;;;;;;9.10;99.90;;;;;;12571481;28;19931;-83
2022/11/04 19:49:08;;;;;;;;;;;9.20;99.90;;;;;;12569777;28;19932;-83
2022/11/04 19:55:10;;;;;;;;;;;9.20;99.90;;;;;;12571393;28;19931;-83
2022/11/04 20:01:13;;;;;;;;;;;9.20;99.90;;;;;;12567749;28;19947;-83
2022/11/04 20:07:15;;;;;;;;;;;9.10;99.90;;;;;;12573360;28;19929;-83
2022/11/04 20:19:38;;;;;;;;;;;9.00;99.90;;;;;;12570690;28;20380;-83
2022/11/04 20:25:39;;;;;;;;;;;9.00;99.90;;;;;;12582903;28;19925;-83
2022/11/04 20:31:41;;;;;;;;;;;9.00;99.90;;;;;;12566649;28;19932;-83
2022/11/04 20:37:43;;;;;;;;;;;9.00;99.90;;;;;;12565833;28;19935;-83
2022/11/04 20:43:45;;;;;;;;;;;8.90;99.90;;;;;;12576925;28;19928;-83
2022/11/04 20:49:48;;;;;;;;;;;8.80;99.90;;;;;;12579690;28;19933;-83
2022/11/04 20:55:49;;;;;;;;;;;8.70;99.90;;;;;;12568658;28;19924;-83
2022/11/04 21:01:51;;;;;;;;;;;8.70;99.90;;;;;;12576973;28;19924;-83
2022/11/04 21:07:53;;;;;;;;;;;8.70;99.90;;;;;;12575572;28;19932;-83
2022/11/04 21:13:55;;;;;;;;;;;8.70;99.90;;;;;;12574819;28;19955;-83
2022/11/04 21:19:56;;;;;;;;;;;8.60;99.90;;;;;;12571523;28;19925;-83
2022/11/04 21:26:18;;;;;;;;;;;8.60;99.90;;;;;;12564794;28;19929;-83
2022/11/04 21:32:20;;;;;;;;;;;8.60;99.90;;;;;;12562755;28;19925;-83
2022/11/04 21:38:22;;;;;;;;;;;8.50;99.90;;;;;;12581518;28;19932;-83
2022/11/04 21:44:24;;;;;;;;;;;8.50;99.90;;;;;;12587019;28;20023;-83
2022/11/04 21:50:25;;;;;;;;;;;8.60;99.90;;;;;;12574470;28;19924;-83
2022/11/04 21:56:28;;;;;;;;;;;8.50;99.90;;;;;;12584464;28;19924;-83
2022/11/04 22:02:30;;;;;;;;;;;8.60;99.90;;;;;;12585623;28;19935;-83
2022/11/04 22:08:32;;;;;;;;;;;8.50;99.90;;;;;;12577815;28;19939;-83
2022/11/04 22:14:34;;;;;;;;;;;8.50;99.90;;;;;;12577172;28;19925;-82
2022/11/04 22:20:36;;;;;;;;;;;8.50;99.90;;;;;;12584957;28;19963;-83
2022/11/04 22:26:38;;;;;;;;;;;8.40;99.90;;;;;;12582636;28;19925;-83
2022/11/04 22:32:40;;;;;;;;;;;8.30;99.90;;;;;;12584158;28;20307;-83
2022/11/04 22:38:42;;;;;;;;;;;8.20;99.90;;;;;;12596865;28;19931;-83
2022/11/04 22:44:44;;;;;;;;;;;8.30;99.90;;;;;;12579751;28;19928;-83
2022/11/04 22:50:51;;;;;;;;;;;8.20;99.90;;;;;;12574930;28;19933;-82
2022/11/04 22:56:53;;;;;;;;;;;8.10;99.90;;;;;;12584056;28;19928;-82
2022/11/04 23:02:56;;;;;;;;;;;8.10;99.90;;;;;;12582105;28;20415;-83
2022/11/04 23:08:57;;;;;;;;;;;8.00;99.90;;;;;;12576453;28;20380;-83
2022/11/04 23:40:30;;;;;;;;;;;7.90;99.90;;;;;;12570405;28;21334;-83
